Time;durP1;ratioP1;P1;durP2;ratioP2;P2;SDS_P1;SDS_P2;PMS_P1;PMS_P2;Temp;Humidity;BMP_temperature;BMP_pressure;BME280_temperature;BME280_humidity;BME280_pressure;Samples;Min_cycle;Max_cycle;Signal;HPM_P1;HPM_P2
2022/01/15 00:02:18;;;;;;;2.15;1.70;;;6.30;99.90;;;;;;5071051;28;20178;-79
2022/01/15 00:04:43;;;;;;;2.42;1.70;;;6.30;99.90;;;;;;5063311;28;20067;-79
2022/01/15 00:07:10;;;;;;;1.85;1.30;;;6.30;99.90;;;;;;5090999;28;20078;-79
2022/01/15 00:09:38;;;;;;;2.25;1.67;;;6.30;99.90;;;;;;5057385;28;20048;-79
2022/01/15 00:12:04;;;;;;;2.22;1.75;;;6.20;99.90;;;;;;5075808;28;20100;-78
2022/01/15 00:14:37;;;;;;;;;;;6.20;99.90;;;;;;5059493;28;20051;-80
2022/01/15 00:17:08;;;;;;;2.33;1.85;;;6.00;99.90;;;;;;5054548;28;19923;-79
2022/01/15 00:19:43;;;;;;;1.70;1.45;;;6.10;99.90;;;;;;5053285;28;20040;-80
2022/01/15 00:22:19;;;;;;;1.60;1.20;;;6.10;99.90;;;;;;5052231;28;20444;-80
2022/01/15 00:24:46;;;;;;;1.40;1.10;;;6.10;99.90;;;;;;5062138;28;20045;-80
2022/01/15 00:27:13;;;;;;;3.92;3.03;;;6.10;99.90;;;;;;5062117;28;20033;-80
2022/01/15 00:29:39;;;;;;;4.03;3.28;;;6.00;99.90;;;;;;5057650;28;20087;-79
2022/01/15 00:32:07;;;;;;;3.28;2.60;;;6.10;99.90;;;;;;5057787;28;20396;-79
2022/01/15 00:34:33;;;;;;;2.92;2.20;;;6.20;99.90;;;;;;5049850;28;20033;-80
2022/01/15 00:36:59;;;;;;;2.42;1.65;;;6.10;99.90;;;;;;5066116;28;20037;-80
2022/01/15 00:39:26;;;;;;;2.13;1.58;;;6.20;99.90;;;;;;5054559;28;20456;-79
2022/01/15 00:41:52;;;;;;;2.08;1.50;;;6.20;99.90;;;;;;5072432;28;20052;-79
2022/01/15 00:44:18;;;;;;;1.58;1.20;;;6.20;99.90;;;;;;5047233;28;20048;-80
2022/01/15 00:46:44;;;;;;;2.63;2.10;;;6.20;99.90;;;;;;5088921;28;20032;-79
2022/01/15 00:49:10;;;;;;;3.85;2.38;;;6.10;99.90;;;;;;5070072;28;20040;-80
2022/01/15 00:51:37;;;;;;;2.65;2.00;;;6.10;99.90;;;;;;5071894;28;20106;-79
2022/01/15 00:54:03;;;;;;;2.00;1.52;;;6.10;99.90;;;;;;5068648;28;20102;-80
2022/01/15 00:56:29;;;;;;;2.10;1.40;;;6.10;99.90;;;;;;5057817;28;20040;-80
2022/01/15 00:58:55;;;;;;;2.85;1.60;;;6.20;99.90;;;;;;5049902;28;20037;-80
2022/01/15 01:01:22;;;;;;;2.35;1.80;;;6.10;99.90;;;;;;5075869;28;20043;-79
2022/01/15 01:03:49;;;;;;;1.92;1.40;;;6.10;99.90;;;;;;5058361;28;20088;-79
2022/01/15 01:06:15;;;;;;;1.77;1.20;;;6.10;99.90;;;;;;5070876;28;20055;-80
2022/01/15 01:08:41;;;;;;;;;;;6.00;99.90;;;;;;5068225;28;20044;-80
2022/01/15 01:11:17;;;;;;;1.50;1.10;;;6.10;99.90;;;;;;5074268;28;20379;-79
2022/01/15 01:24:28;;;;;;;1.13;0.75;;;6.00;99.90;;;;;;5053728;28;20084;-79
2022/01/15 01:27:01;;;;;;;;;;;6.00;99.90;;;;;;5053922;28;20040;-80
2022/01/15 01:31:59;;;;;;;2.45;1.17;;;6.10;99.90;;;;;;5068281;28;20045;-79
2022/01/15 01:34:28;;;;;;;2.58;1.48;;;5.90;99.90;;;;;;5072546;28;20139;-80
2022/01/15 01:37:03;;;;;;;1.75;1.08;;;6.00;99.90;;;;;;5058921;28;20059;-80
2022/01/15 01:39:39;;;;;;;2.20;1.42;;;6.10;99.90;;;;;;5049737;28;20116;-80
2022/01/15 01:42:25;;;;;;;2.90;1.42;;;6.00;99.90;;;;;;5095982;28;20060;-79
2022/01/15 01:45:12;;;;;;;1.83;1.00;;;6.00;99.90;;;;;;5046130;28;20044;-79
2022/01/15 01:47:40;;;;;;;1.80;1.10;;;6.00;99.90;;;;;;5069567;28;20063;-79
2022/01/15 01:50:27;;;;;;;2.22;0.80;;;5.90;99.90;;;;;;5051722;28;20032;-79
2022/01/15 01:52:56;;;;;;;1.60;1.00;;;5.90;99.90;;;;;;5058200;28;20036;-79
2022/01/15 01:55:24;;;;;;;1.55;1.10;;;5.90;99.90;;;;;;5072790;28;20131;-79
2022/01/15 01:57:53;;;;;;;1.92;1.00;;;6.00;99.90;;;;;;5068312;28;20103;-81
2022/01/15 02:00:20;;;;;;;1.48;0.90;;;6.00;99.90;;;;;;5074136;28;20041;-79
2022/01/15 02:02:47;;;;;;;1.33;0.52;;;5.90;99.90;;;;;;5055717;28;20527;-79
2022/01/15 02:05:14;;;;;;;1.10;0.60;;;6.00;99.90;;;;;;5072749;28;20166;-79
2022/01/15 02:07:41;;;;;;;0.88;0.70;;;6.00;99.90;;;;;;5057870;28;20071;-80
2022/01/15 02:10:09;;;;;;;1.40;0.70;;;5.90;99.90;;;;;;5058307;28;20048;-80
2022/01/15 02:12:36;;;;;;;0.80;0.60;;;5.90;99.90;;;;;;5079653;28;20079;-79
2022/01/15 02:15:13;;;;;;;0.70;0.55;;;5.90;99.90;;;;;;5067930;28;20028;-80
2022/01/15 02:17:40;;;;;;;0.45;0.40;;;5.90;99.90;;;;;;5071452;28;20555;-79
2022/01/15 02:25:49;;;;;;;0.80;0.60;;;5.90;99.90;;;;;;5067118;28;20095;-79
2022/01/15 02:28:17;;;;;;;1.23;0.80;;;5.90;99.90;;;;;;5058593;28;20548;-79
2022/01/15 02:30:43;;;;;;;0.80;0.60;;;5.90;99.90;;;;;;5081986;28;20049;-79
2022/01/15 02:33:09;;;;;;;1.30;0.90;;;5.80;99.90;;;;;;5059674;28;20059;-79
2022/01/15 02:35:35;;;;;;;1.35;0.80;;;5.70;99.90;;;;;;5068708;28;20094;-79
2022/01/15 02:38:07;;;;;;;1.15;0.70;;;5.80;99.90;;;;;;5073853;28;20035;-79
2022/01/15 02:40:35;;;;;;;1.35;0.85;;;5.70;99.90;;;;;;5067178;28;20540;-78
2022/01/15 02:43:03;;;;;;;0.90;0.70;;;5.90;99.90;;;;;;5051611;28;20127;-78
2022/01/15 02:45:32;;;;;;;1.98;0.80;;;5.80;99.90;;;;;;5070942;28;20036;-78
2022/01/15 02:48:01;;;;;;;1.02;0.70;;;5.70;99.90;;;;;;5047373;28;20110;-78
2022/01/15 02:50:28;;;;;;;0.68;0.50;;;5.80;99.90;;;;;;5045640;28;20048;-78
2022/01/15 02:52:53;;;;;;;0.57;0.40;;;5.80;99.90;;;;;;5071758;28;20040;-77
2022/01/15 02:55:19;;;;;;;0.50;0.40;;;5.70;99.90;;;;;;5071749;28;20098;-78
2022/01/15 02:57:45;;;;;;;0.77;0.47;;;5.80;99.90;;;;;;5055234;28;20037;-78
2022/01/15 03:00:11;;;;;;;0.43;0.30;;;5.80;99.90;;;;;;5034370;28;20055;-78
2022/01/15 03:02:37;;;;;;;;;;;5.70;99.90;;;;;;5061375;28;20475;-78
2022/01/15 03:05:03;;;;;;;0.38;0.20;;;5.70;99.90;;;;;;5055405;28;19916;-78
2022/01/15 03:07:29;;;;;;;0.35;0.30;;;5.80;99.90;;;;;;5056590;28;20048;-79
2022/01/15 03:09:54;;;;;;;0.55;0.30;;;5.90;99.90;;;;;;5061155;28;20044;-78
2022/01/15 03:12:21;;;;;;;0.32;0.20;;;5.70;99.90;;;;;;5068903;28;20044;-78
2022/01/15 03:14:48;;;;;;;0.45;0.30;;;5.70;99.90;;;;;;5048101;28;20040;-79
2022/01/15 03:17:13;;;;;;;0.77;0.38;;;5.80;99.90;;;;;;5051161;28;20052;-78
2022/01/15 03:19:39;;;;;;;0.17;0.17;;;5.80;99.90;;;;;;5060698;28;20041;-79
2022/01/15 03:22:05;;;;;;;0.38;0.20;;;5.80;99.90;;;;;;5071378;28;20041;-78
2022/01/15 03:24:30;;;;;;;0.35;0.25;;;5.70;99.90;;;;;;5058668;28;20044;-78
2022/01/15 03:26:56;;;;;;;0.45;0.35;;;5.80;99.90;;;;;;5083717;28;20110;-78
2022/01/15 03:29:22;;;;;;;0.55;0.45;;;5.80;99.90;;;;;;5079266;28;20040;-81
2022/01/15 03:31:47;;;;;;;0.35;0.30;;;5.80;99.90;;;;;;5066367;28;20072;-80
2022/01/15 03:34:13;;;;;;;0.50;0.20;;;5.70;99.90;;;;;;5046087;28;20076;-80
2022/01/15 03:36:39;;;;;;;0.50;0.22;;;5.70;99.90;;;;;;5063093;28;20045;-81
2022/01/15 03:39:05;;;;;;;0.75;0.40;;;5.80;99.90;;;;;;5084228;28;20040;-81
2022/01/15 03:41:30;;;;;;;0.28;0.28;;;5.70;99.90;;;;;;5057966;28;20085;-81
2022/01/15 03:43:56;;;;;;;0.40;0.30;;;5.80;99.90;;;;;;5041591;28;20110;-82
2022/01/15 03:46:22;;;;;;;0.30;0.30;;;5.80;99.90;;;;;;5067867;28;20772;-81
2022/01/15 03:48:47;;;;;;;0.28;0.20;;;5.80;99.90;;;;;;5079096;28;20041;-81
2022/01/15 03:51:17;;;;;;;0.10;0.05;;;5.70;99.90;;;;;;5076404;28;20489;-81
2022/01/15 03:53:43;;;;;;;0.95;0.40;;;5.80;99.90;;;;;;5043027;28;20040;-81
2022/01/15 03:56:08;;;;;;;0.80;0.60;;;5.90;99.90;;;;;;5076414;28;20040;-82
2022/01/15 03:58:34;;;;;;;1.40;1.00;;;5.70;99.90;;;;;;5071816;28;20383;-82
2022/01/15 04:01:00;;;;;;;1.40;0.90;;;5.80;99.90;;;;;;5071979;28;20037;-81
2022/01/15 04:03:26;;;;;;;1.10;0.80;;;5.70;99.90;;;;;;5082201;28;20071;-81
2022/01/15 04:05:51;;;;;;;1.30;0.77;;;5.70;99.90;;;;;;5061275;28;20041;-81
2022/01/15 04:08:17;;;;;;;1.63;0.90;;;5.70;99.90;;;;;;5068245;28;20037;-81
2022/01/15 04:10:43;;;;;;;0.63;0.57;;;5.80;99.90;;;;;;5058611;28;20062;-80
2022/01/15 04:13:09;;;;;;;1.02;0.70;;;5.70;99.90;;;;;;5060422;28;20396;-81
2022/01/15 04:15:35;;;;;;;0.68;0.50;;;5.70;99.90;;;;;;5075059;28;20089;-82
2022/01/15 04:18:01;;;;;;;1.02;0.70;;;5.90;99.90;;;;;;5046853;28;20037;-81
2022/01/15 04:20:27;;;;;;;0.65;0.60;;;5.90;99.90;;;;;;5067893;28;20041;-81
2022/01/15 04:22:54;;;;;;;1.67;0.73;;;5.80;99.90;;;;;;5068639;28;20059;-80
2022/01/15 04:25:21;;;;;;;0.93;0.73;;;5.80;99.90;;;;;;5062643;28;20044;-80
2022/01/15 04:27:47;;;;;;;0.95;0.70;;;5.80;99.90;;;;;;5075965;28;20404;-81
2022/01/15 04:30:13;;;;;;;;;;;5.90;99.90;;;;;;5073417;28;20142;-80
2022/01/15 04:32:40;;;;;;;1.20;0.80;;;5.80;99.90;;;;;;5041958;28;19927;-81
2022/01/15 04:35:07;;;;;;;1.23;0.90;;;5.70;99.90;;;;;;5073264;28;20028;-80
2022/01/15 04:37:39;;;;;;;;;;;5.70;99.90;;;;;;5075510;28;20733;-80
2022/01/15 04:40:07;;;;;;;1.58;1.10;;;5.70;99.90;;;;;;5074382;28;19916;-81
2022/01/15 04:42:33;;;;;;;1.10;0.70;;;5.70;99.90;;;;;;5078037;28;20061;-81
2022/01/15 04:44:59;;;;;;;0.60;0.50;;;5.80;99.90;;;;;;5056268;28;20048;-81
2022/01/15 04:47:25;;;;;;;1.35;0.70;;;5.70;99.90;;;;;;5065534;28;20048;-81
2022/01/15 04:49:54;;;;;;;0.98;0.55;;;5.80;99.90;;;;;;5064343;28;20040;-80
2022/01/15 04:52:21;;;;;;;1.00;0.70;;;5.70;99.90;;;;;;5061741;28;20040;-73
2022/01/15 04:54:46;;;;;;;1.55;1.10;;;5.70;99.90;;;;;;5069668;28;20056;-73
2022/01/15 04:57:12;;;;;;;1.38;0.80;;;5.70;99.90;;;;;;5062473;28;20046;-72
2022/01/15 04:59:38;;;;;;;1.00;0.70;;;5.70;99.90;;;;;;5079307;28;20041;-72
2022/01/15 05:02:03;;;;;;;1.08;0.80;;;5.70;99.90;;;;;;5062670;28;20044;-73
2022/01/15 05:04:29;;;;;;;1.42;0.80;;;5.80;99.90;;;;;;5063902;28;20059;-72
2022/01/15 05:06:55;;;;;;;0.95;0.70;;;5.70;99.90;;;;;;5060812;28;20059;-72
2022/01/15 05:09:20;;;;;;;1.13;0.90;;;5.70;99.90;;;;;;5061583;28;20059;-73
2022/01/15 05:12:00;;;;;;;1.23;0.70;;;5.80;99.90;;;;;;5044053;28;20102;-73
2022/01/15 05:14:27;;;;;;;1.35;0.93;;;5.80;99.90;;;;;;5070062;28;20070;-73
2022/01/15 05:16:53;;;;;;;0.95;0.70;;;5.70;99.90;;;;;;5064882;28;20167;-73
2022/01/15 05:19:18;;;;;;;1.80;1.35;;;5.70;99.90;;;;;;5069207;28;20111;-72
2022/01/15 05:21:44;;;;;;;1.85;1.40;;;5.80;99.90;;;;;;5069606;28;20052;-72
2022/01/15 05:24:09;;;;;;;2.92;1.30;;;5.80;99.90;;;;;;5066734;28;20044;-73
2022/01/15 05:26:35;;;;;;;1.60;1.10;;;5.70;99.90;;;;;;5066870;28;20051;-73
2022/01/15 05:29:02;;;;;;;1.80;1.20;;;5.80;99.90;;;;;;5048020;28;20036;-73
2022/01/15 05:31:27;;;;;;;;;;;5.70;99.90;;;;;;5047639;28;20044;-73
2022/01/15 05:33:53;;;;;;;1.02;0.85;;;5.70;99.90;;;;;;5076025;28;19927;-73
2022/01/15 05:36:19;;;;;;;1.13;0.90;;;5.80;99.90;;;;;;5067696;28;20033;-73
2022/01/15 05:38:45;;;;;;;1.08;0.82;;;5.80;99.90;;;;;;5065029;28;20475;-72
2022/01/15 05:41:11;;;;;;;2.33;0.73;;;5.80;99.90;;;;;;5051918;28;20062;-72
2022/01/15 05:43:37;;;;;;;1.17;0.80;;;5.70;99.90;;;;;;5065717;28;20052;-72
2022/01/15 05:46:03;;;;;;;1.23;0.77;;;5.70;99.90;;;;;;5080793;28;20150;-72
2022/01/15 05:48:28;;;;;;;1.20;0.98;;;5.80;99.90;;;;;;5060714;28;20048;-73
2022/01/15 05:50:54;;;;;;;1.50;0.85;;;5.60;99.90;;;;;;5053110;28;20430;-72
2022/01/15 05:53:20;;;;;;;1.67;1.10;;;5.70;99.90;;;;;;5065058;28;20052;-73
2022/01/15 05:55:46;;;;;;;2.03;1.00;;;5.80;99.90;;;;;;5066444;28;20025;-73
2022/01/15 05:58:12;;;;;;;1.30;0.93;;;5.70;99.90;;;;;;5059111;28;20419;-73
2022/01/15 06:00:37;;;;;;;1.23;1.00;;;5.80;99.90;;;;;;5083505;28;20144;-73
2022/01/15 06:03:03;;;;;;;1.42;1.00;;;5.70;99.90;;;;;;5041585;28;20048;-73
2022/01/15 06:05:29;;;;;;;2.63;1.30;;;5.70;99.90;;;;;;5080958;28;20055;-74
2022/01/15 06:07:55;;;;;;;1.95;1.45;;;5.80;99.90;;;;;;5047529;28;20391;-73
2022/01/15 06:10:20;;;;;;;1.90;1.13;;;5.70;99.90;;;;;;5058271;28;20506;-73
2022/01/15 06:12:46;;;;;;;1.80;1.40;;;5.80;99.90;;;;;;5060012;28;20041;-73
2022/01/15 06:15:16;;;;;;;1.45;1.13;;;5.70;99.90;;;;;;5063799;28;20032;-73
2022/01/15 06:17:42;;;;;;;2.67;1.30;;;5.80;99.90;;;;;;5052773;28;20430;-73
2022/01/15 06:20:10;;;;;;;1.63;1.25;;;5.80;99.90;;;;;;5080609;28;20043;-73
2022/01/15 06:22:36;;;;;;;1.63;1.20;;;5.80;99.90;;;;;;5048346;28;20491;-73
2022/01/15 06:25:03;;;;;;;1.88;1.67;;;5.80;99.90;;;;;;5077065;28;20055;-73
2022/01/15 06:27:30;;;;;;;2.55;1.60;;;5.80;99.90;;;;;;5044500;28;20049;-73
2022/01/15 06:29:56;;;;;;;2.33;1.50;;;5.80;99.90;;;;;;5054566;28;20043;-73
2022/01/15 06:32:23;;;;;;;;;;;5.70;99.90;;;;;;5069939;28;20124;-73
2022/01/15 06:34:48;;;;;;;2.20;1.45;;;5.80;99.90;;;;;;5062597;28;20286;-73
2022/01/15 06:37:14;;;;;;;2.17;1.40;;;5.70;99.90;;;;;;5065135;28;20460;-73
2022/01/15 06:39:40;;;;;;;1.60;1.00;;;5.70;99.90;;;;;;5059460;28;20040;-73
2022/01/15 06:42:05;;;;;;;3.08;1.92;;;5.80;99.90;;;;;;5050039;28;20048;-73
2022/01/15 06:44:31;;;;;;;2.28;1.58;;;5.70;99.90;;;;;;5050130;28;20425;-73
2022/01/15 06:46:57;;;;;;;3.00;1.50;;;5.70;99.90;;;;;;5064601;28;20136;-73
2022/01/15 06:49:23;;;;;;;2.55;1.88;;;5.70;99.90;;;;;;5062880;28;20090;-73
2022/01/15 06:51:49;;;;;;;2.85;2.05;;;5.80;99.90;;;;;;5061000;28;20089;-73
2022/01/15 06:54:14;;;;;;;2.25;1.63;;;5.70;99.90;;;;;;5063527;28;20116;-73
2022/01/15 06:56:40;;;;;;;2.78;1.63;;;5.70;99.90;;;;;;5065916;28;20111;-73
2022/01/15 06:59:06;;;;;;;2.22;1.50;;;5.60;99.90;;;;;;5050317;28;20045;-73
2022/01/15 07:01:31;;;;;;;2.15;1.55;;;5.80;99.90;;;;;;5066481;28;20048;-73
2022/01/15 07:03:57;;;;;;;2.60;1.90;;;5.70;99.90;;;;;;5033849;28;20473;-73
2022/01/15 07:06:23;;;;;;;2.50;1.63;;;5.80;99.90;;;;;;5063329;28;20048;-73
2022/01/15 07:08:48;;;;;;;2.30;1.60;;;5.60;99.90;;;;;;5050877;28;20032;-73
2022/01/15 07:11:14;;;;;;;3.30;1.80;;;5.70;99.90;;;;;;5065123;28;20041;-73
2022/01/15 07:13:40;;;;;;;2.58;1.65;;;5.70;99.90;;;;;;5062872;28;20045;-73
2022/01/15 07:16:05;;;;;;;1.85;1.40;;;5.70;99.90;;;;;;5064753;28;20063;-73
2022/01/15 07:18:32;;;;;;;1.83;1.30;;;5.60;99.90;;;;;;5051114;28;20098;-72
2022/01/15 07:20:58;;;;;;;1.70;1.35;;;5.50;99.90;;;;;;5067483;28;20504;-73
2022/01/15 07:23:23;;;;;;;1.50;1.05;;;5.70;99.90;;;;;;5062135;28;20045;-72
2022/01/15 07:25:49;;;;;;;1.50;0.93;;;5.60;99.90;;;;;;5025967;28;20040;-72
2022/01/15 07:28:17;;;;;;;2.03;1.23;;;5.60;99.90;;;;;;5046697;28;20103;-72
2022/01/15 07:30:43;;;;;;;1.67;1.10;;;5.70;99.90;;;;;;5058641;28;20040;-72
2022/01/15 07:33:09;;;;;;;1.50;1.10;;;5.60;99.90;;;;;;5052680;28;20041;-72
2022/01/15 07:35:34;;;;;;;1.80;1.10;;;5.60;99.90;;;;;;5043308;28;20041;-72
2022/01/15 07:38:00;;;;;;;1.67;1.08;;;5.70;99.90;;;;;;5052506;28;20693;-72
2022/01/15 07:40:26;;;;;;;1.60;1.10;;;5.60;99.90;;;;;;5063483;28;20045;-72
2022/01/15 07:42:52;;;;;;;1.67;1.33;;;5.60;99.90;;;;;;5067074;28;20135;-73
2022/01/15 07:45:18;;;;;;;2.95;1.98;;;5.50;99.90;;;;;;5100059;28;20049;-73
2022/01/15 07:47:44;;;;;;;3.10;2.05;;;5.50;99.90;;;;;;5048360;28;20551;-73
2022/01/15 07:50:14;;;;;;;2.50;1.83;;;5.60;99.90;;;;;;5065226;28;20067;-73
2022/01/15 07:52:40;;;;;;;2.70;1.80;;;5.70;99.90;;;;;;5061562;28;20080;-73
2022/01/15 07:55:06;;;;;;;3.17;2.22;;;5.60;99.90;;;;;;5041564;28;20096;-72
2022/01/15 07:57:32;;;;;;;2.22;1.65;;;5.60;99.90;;;;;;5057417;28;20468;-73
2022/01/15 07:59:58;;;;;;;3.00;2.03;;;5.60;99.90;;;;;;5089902;28;20119;-73
2022/01/15 08:02:24;;;;;;;4.15;2.63;;;5.60;99.90;;;;;;5091510;28;20040;-74
2022/01/15 08:04:50;;;;;;;4.00;2.80;;;5.60;99.90;;;;;;5046817;28;20058;-72
2022/01/15 08:07:18;;;;;;;3.17;2.50;;;5.60;99.90;;;;;;5068316;28;20049;-72
2022/01/15 08:09:44;;;;;;;3.20;2.42;;;5.60;99.90;;;;;;5049134;28;20055;-72
2022/01/15 08:12:11;;;;;;;3.38;2.15;;;5.50;99.90;;;;;;5064632;28;20044;-73
2022/01/15 08:14:37;;;;;;;3.10;2.30;;;5.70;99.90;;;;;;5070816;28;20048;-73
2022/01/15 08:17:03;;;;;;;3.72;2.90;;;5.70;99.90;;;;;;5037299;28;20029;-73
2022/01/15 08:19:29;;;;;;;3.03;2.00;;;5.50;99.90;;;;;;5069603;28;20064;-72
2022/01/15 08:21:54;;;;;;;3.17;2.30;;;5.60;99.90;;;;;;5067724;28;20072;-72
2022/01/15 08:24:20;;;;;;;3.88;2.70;;;5.60;99.90;;;;;;5042603;28;20040;-72
2022/01/15 08:26:47;;;;;;;4.30;2.60;;;5.70;99.90;;;;;;5068610;28;20047;-78
2022/01/15 08:29:12;;;;;;;;;;;5.50;99.90;;;;;;5058710;28;20051;-77
2022/01/15 08:31:38;;;;;;;4.45;2.60;;;5.50;99.90;;;;;;5050138;28;20343;-77
2022/01/15 08:34:04;;;;;;;4.05;2.47;;;5.60;99.90;;;;;;5072021;28;20037;-72
2022/01/15 08:36:32;;;;;;;4.78;2.92;;;5.60;99.90;;;;;;5049249;28;20037;-77
2022/01/15 08:38:58;;;;;;;4.53;3.08;;;5.60;99.90;;;;;;5075420;28;20108;-77
2022/01/15 08:41:24;;;;;;;4.78;2.90;;;5.60;99.90;;;;;;5069296;28;20078;-78
2022/01/15 08:43:50;;;;;;;4.97;2.70;;;5.60;99.90;;;;;;5074045;28;20530;-79
2022/01/15 08:46:18;;;;;;;4.90;3.10;;;5.60;99.90;;;;;;5073525;28;20037;-79
2022/01/15 08:48:44;;;;;;;4.82;2.85;;;5.60;99.90;;;;;;5042180;28;20396;-79
2022/01/15 08:51:10;;;;;;;4.68;2.92;;;5.70;99.90;;;;;;5074568;28;20063;-80
2022/01/15 08:53:35;;;;;;;4.03;2.60;;;5.60;99.90;;;;;;5058294;28;20055;-79
2022/01/15 08:56:03;;;;;;;3.55;2.75;;;5.60;99.90;;;;;;5057910;28;20059;-80
2022/01/15 08:58:29;;;;;;;4.32;2.67;;;5.60;99.90;;;;;;5074092;28;20033;-81
2022/01/15 09:00:55;;;;;;;4.82;2.67;;;5.60;99.90;;;;;;5074228;28;20037;-79
2022/01/15 09:03:22;;;;;;;3.40;2.42;;;5.60;99.90;;;;;;5063147;28;20048;-79
2022/01/15 09:05:50;;;;;;;4.32;2.67;;;5.70;99.90;;;;;;5050187;28;20124;-79
2022/01/15 09:08:17;;;;;;;3.97;2.63;;;5.70;99.90;;;;;;5074078;28;20040;-78
2022/01/15 09:10:43;;;;;;;3.92;2.30;;;5.60;99.90;;;;;;5050220;28;20116;-79
2022/01/15 09:13:10;;;;;;;3.53;2.30;;;5.70;99.90;;;;;;5060704;28;20064;-81
2022/01/15 09:15:35;;;;;;;4.15;2.35;;;5.70;99.90;;;;;;5070444;28;20048;-79
2022/01/15 09:18:01;;;;;;;3.33;2.40;;;5.70;99.90;;;;;;5049214;28;20107;-81
2022/01/15 09:20:27;;;;;;;3.85;2.17;;;5.60;99.90;;;;;;5070278;28;20557;-79
2022/01/15 09:22:53;;;;;;;3.75;2.20;;;5.70;99.90;;;;;;5073407;28;20041;-73
2022/01/15 09:25:19;;;;;;;3.05;2.13;;;5.70;99.90;;;;;;5065707;28;20087;-73
2022/01/15 09:30:28;;;;;;;3.45;2.20;;;5.70;99.90;;;;;;5060478;28;20076;-72
2022/01/15 09:32:55;;;;;;;2.80;1.90;;;5.70;99.90;;;;;;5059538;28;20091;-73
2022/01/15 09:35:25;;;;;;;3.65;2.25;;;5.60;99.90;;;;;;5031975;28;20086;-79
2022/01/15 09:37:52;;;;;;;2.83;2.00;;;5.50;99.90;;;;;;5064901;28;20045;-79
2022/01/15 09:40:19;;;;;;;2.63;1.75;;;5.60;99.90;;;;;;5068857;28;20479;-79
2022/01/15 09:42:47;;;;;;;2.85;2.08;;;5.50;99.90;;;;;;5036102;28;20072;-79
2022/01/15 09:45:13;;;;;;;2.80;1.88;;;5.60;99.90;;;;;;5061680;28;20044;-79
2022/01/15 09:47:40;;;;;;;3.47;1.95;;;5.50;99.90;;;;;;5078207;28;20048;-79
2022/01/15 09:50:10;;;;;;;3.28;2.08;;;5.50;99.90;;;;;;5075208;28;20047;-80
2022/01/15 09:52:36;;;;;;;4.97;3.35;;;5.50;99.90;;;;;;5064508;28;20053;-81
2022/01/15 09:55:06;;;;;;;4.45;3.08;;;5.50;99.90;;;;;;5045408;28;20029;-79
2022/01/15 09:57:33;;;;;;;4.55;3.08;;;5.50;99.90;;;;;;5045303;28;20131;-79
2022/01/15 10:00:01;;;;;;;6.13;3.97;;;5.50;99.90;;;;;;5049545;28;20036;-79
2022/01/15 10:02:27;;;;;;;6.10;4.03;;;5.50;99.90;;;;;;5063098;28;20086;-79
2022/01/15 10:04:53;;;;;;;8.93;5.88;;;5.50;99.90;;;;;;5069106;28;20088;-80
2022/01/15 10:07:27;;;;;;;7.85;5.45;;;5.60;99.90;;;;;;5053321;28;20047;-79
2022/01/15 10:09:55;;;;;;;10.18;6.25;;;5.70;99.90;;;;;;5065649;28;20119;-79
2022/01/15 10:12:31;;;;;;;9.07;6.00;;;5.60;99.90;;;;;;5068762;28;20098;-81
2022/01/15 10:15:05;;;;;;;7.73;5.70;;;5.70;99.90;;;;;;5056027;28;20056;-81
2022/01/15 10:17:35;;;;;;;8.50;5.82;;;5.60;99.90;;;;;;5052164;28;20076;-78
2022/01/15 10:20:04;;;;;;;9.25;6.38;;;5.70;99.90;;;;;;5056978;28;20048;-80
2022/01/15 10:22:32;;;;;;;10.02;6.72;;;5.70;99.90;;;;;;5063421;28;20049;-79
2022/01/15 10:25:00;;;;;;;9.13;6.22;;;5.70;99.90;;;;;;5072625;28;20051;-79
2022/01/15 10:27:32;;;;;;;10.88;6.28;;;5.70;99.90;;;;;;5070950;28;20704;-80
2022/01/15 10:30:11;;;;;;;9.20;6.18;;;5.70;99.90;;;;;;5056287;28;20037;-80
2022/01/15 10:32:53;;;;;;;10.27;7.03;;;5.70;99.90;;;;;;5073635;28;20047;-80
2022/01/15 10:35:19;;;;;;;11.73;6.90;;;5.70;99.90;;;;;;5060773;28;20460;-80
2022/01/15 10:37:53;;;;;;;11.40;7.38;;;5.60;99.90;;;;;;5045657;28;20060;-80
2022/01/15 10:40:25;;;;;;;11.77;6.97;;;5.70;99.90;;;;;;5068407;28;20488;-80
2022/01/15 10:42:55;;;;;;;11.45;7.07;;;5.70;99.90;;;;;;5070371;28;20132;-79
2022/01/15 10:45:21;;;;;;;10.70;6.70;;;5.60;99.90;;;;;;5065067;28;20059;-80
2022/01/15 10:47:49;;;;;;;10.68;6.93;;;5.70;99.90;;;;;;5064400;28;20117;-79
2022/01/15 10:50:29;;;;;;;12.23;7.50;;;5.70;99.90;;;;;;5065162;28;20407;-79
2022/01/15 10:52:56;;;;;;;11.93;6.78;;;5.60;99.90;;;;;;5065211;28;20036;-79
2022/01/15 10:55:32;;;;;;;11.02;6.95;;;5.70;99.90;;;;;;5029483;28;20072;-80
2022/01/15 10:58:01;;;;;;;10.68;6.53;;;5.70;99.90;;;;;;5080393;28;20044;-80
2022/01/15 11:00:42;;;;;;;11.05;6.90;;;5.60;99.90;;;;;;5073646;28;20045;-80
2022/01/15 11:03:10;;;;;;;11.60;6.97;;;5.70;99.90;;;;;;5052150;28;20372;-80
2022/01/15 11:05:37;;;;;;;10.73;6.13;;;5.60;99.90;;;;;;5067929;28;20037;-80
2022/01/15 11:08:18;;;;;;;13.10;7.93;;;5.60;99.90;;;;;;5051228;28;20041;-78
2022/01/15 11:11:07;;;;;;;11.95;7.65;;;5.70;99.90;;;;;;5057812;28;20044;-82
2022/01/15 11:13:35;;;;;;;12.25;7.40;;;5.60;99.90;;;;;;5070301;28;20067;-82
2022/01/15 11:16:19;;;;;;;10.82;6.63;;;5.60;99.90;;;;;;5054745;28;20101;-83
2022/01/15 11:18:50;;;;;;;11.05;6.75;;;5.50;99.90;;;;;;5072697;28;20043;-83
2022/01/15 11:21:18;;;;;;;11.82;7.15;;;5.50;99.90;;;;;;5048620;28;20048;-82
2022/01/15 11:23:46;;;;;;;10.00;6.00;;;5.50;99.90;;;;;;5051798;28;20059;-82
2022/01/15 11:26:19;;;;;;;10.48;6.93;;;5.60;99.90;;;;;;5080171;28;20097;-83
2022/01/15 11:28:45;;;;;;;11.60;7.05;;;5.60;99.90;;;;;;5072155;28;20036;-83
2022/01/15 11:31:15;;;;;;;11.07;6.53;;;5.60;99.90;;;;;;5054430;28;20401;-81
2022/01/15 11:33:47;;;;;;;11.73;7.20;;;5.70;99.90;;;;;;5053567;28;20036;-82
2022/01/15 11:36:34;;;;;;;10.98;6.95;;;5.60;99.90;;;;;;5070401;28;20028;-82
2022/01/15 11:39:06;;;;;;;12.23;8.40;;;5.70;99.90;;;;;;5067480;28;20103;-82
2022/01/15 11:41:31;;;;;;;15.48;8.63;;;5.60;99.90;;;;;;5064892;28;20174;-81
2022/01/15 11:44:01;;;;;;;14.17;8.47;;;5.60;99.90;;;;;;5082433;28;20069;-82
2022/01/15 11:46:46;;;;;;;13.40;7.95;;;5.60;99.90;;;;;;5057784;28;20291;-83
2022/01/15 11:49:33;;;;;;;11.77;7.22;;;5.60;99.90;;;;;;5092297;28;20091;-82
2022/01/15 11:52:12;;;;;;;13.57;8.10;;;5.60;99.90;;;;;;5079578;28;20041;-82
2022/01/15 11:54:39;;;;;;;10.63;6.82;;;5.60;99.90;;;;;;5074830;28;20056;-82
2022/01/15 11:57:19;;;;;;;12.27;7.13;;;5.60;99.90;;;;;;5071119;28;20415;-82
2022/01/15 11:59:47;;;;;;;12.48;8.13;;;5.60;99.90;;;;;;5064367;28;20041;-81
2022/01/15 12:02:26;;;;;;;13.80;8.20;;;5.60;99.90;;;;;;5070049;28;20082;-80
2022/01/15 12:04:52;;;;;;;11.48;7.82;;;5.60;99.90;;;;;;5066639;28;20036;-80
2022/01/15 12:07:20;;;;;;;14.27;9.15;;;5.50;99.90;;;;;;5060069;28;20123;-80
2022/01/15 12:09:48;;;;;;;15.65;9.48;;;5.60;99.90;;;;;;5071496;28;20506;-79
2022/01/15 12:14:52;;;;;;;15.27;9.93;;;5.50;99.90;;;;;;5067782;28;20488;-80
2022/01/15 12:17:36;;;;;;;13.10;8.60;;;5.50;99.90;;;;;;5064329;28;20029;-81
2022/01/15 12:20:27;;;;;;;14.63;9.90;;;5.50;99.90;;;;;;5064311;28;20086;-80
2022/01/15 12:23:18;;;;;;;15.98;10.73;;;5.50;99.90;;;;;;5065479;28;20044;-78
2022/01/15 12:25:45;;;;;;;15.30;10.57;;;5.50;99.90;;;;;;5062770;28;20451;-79
2022/01/15 12:28:15;;;;;;;14.23;10.35;;;5.40;99.90;;;;;;5048411;28;20377;-78
2022/01/15 12:30:47;;;;;;;14.93;10.68;;;5.30;99.90;;;;;;5069608;28;20044;-78
2022/01/15 12:33:15;;;;;;;14.07;9.70;;;5.40;99.90;;;;;;5067835;28;20051;-78
2022/01/15 12:35:50;;;;;;;15.68;10.27;;;5.40;99.90;;;;;;5073120;28;20499;-78
2022/01/15 12:38:28;;;;;;;13.52;9.70;;;5.30;99.90;;;;;;5062454;28;20043;-78
2022/01/15 12:41:06;;;;;;;12.98;9.80;;;5.30;99.90;;;;;;5106509;28;20047;-78
2022/01/15 12:43:35;;;;;;;13.88;10.05;;;5.30;99.90;;;;;;5070735;28;20121;-78
2022/01/15 12:46:15;;;;;;;15.60;10.75;;;5.30;99.90;;;;;;5065914;28;20054;-79
2022/01/15 12:48:46;;;;;;;15.13;10.85;;;5.30;99.90;;;;;;5054315;28;20073;-80
2022/01/15 12:51:14;;;;;;;13.57;10.00;;;5.30;99.90;;;;;;5059677;28;20049;-78
2022/01/15 12:53:44;;;;;;;12.65;9.02;;;5.20;99.90;;;;;;5067464;28;20040;-78
2022/01/15 12:56:12;;;;;;;15.63;11.20;;;5.20;99.90;;;;;;5059950;28;20039;-79
2022/01/15 12:58:39;;;;;;;17.83;10.85;;;5.20;99.90;;;;;;5075112;28;20041;-80
2022/01/15 13:01:06;;;;;;;18.85;11.68;;;5.20;99.90;;;;;;5070287;28;20072;-81
2022/01/15 13:03:34;;;;;;;;;;;5.20;99.90;;;;;;5089233;28;20040;-80
2022/01/15 13:06:02;;;;;;;16.10;10.85;;;5.20;99.90;;;;;;5070159;28;19917;-80
2022/01/15 13:08:33;;;;;;;17.40;11.50;;;5.10;99.90;;;;;;5059220;28;20048;-80
2022/01/15 13:11:07;;;;;;;17.95;13.07;;;5.10;99.90;;;;;;5074509;28;20040;-80
2022/01/15 13:13:35;;;;;;;17.15;12.27;;;5.20;99.90;;;;;;5074593;28;20083;-80
2022/01/15 13:16:17;;;;;;;18.67;12.20;;;5.10;99.90;;;;;;5071352;28;20104;-80
2022/01/15 13:18:45;;;;;;;19.40;12.15;;;5.10;99.90;;;;;;5065221;28;20029;-80
2022/01/15 13:21:16;;;;;;;16.38;11.88;;;5.10;99.90;;;;;;5062191;28;20045;-80
2022/01/15 13:24:08;;;;;;;18.67;12.38;;;5.10;99.90;;;;;;5075225;28;20063;-80
2022/01/15 13:26:37;;;;;;;19.10;13.15;;;5.10;99.90;;;;;;5074593;28;20038;-80
2022/01/15 13:29:09;;;;;;;17.65;11.88;;;5.00;99.90;;;;;;5073903;28;20448;-79